METAR de aeropuertos de Murcia y cercanos

 

LEMI - Murcia/Corvera
Actualización: 26/09/2020 19:30
Despejado
Despejado
 Viento del SO
Viento: SO 22 km/h
Temperatura: 22°C
Rocío: 8°C
Humedad: 41%
Barómetro: 1014 hPa
Resumen: Despejado
Visibilidad: greater than 10 km
2020/09/26 17:30 LEMI 261730Z 22012KT CAVOK 22/08 Q1014
LERI - Murcia/Alcantarilla
Actualización: 26/09/2020 19:30
Despejado
Despejado
 Viento del OSO
Viento: OSO 17 km/h
Temperatura: 24°C
Rocío: 5°C
Humedad: 29%
Barómetro: 1013 hPa
Resumen: Despejado
Visibilidad: greater than 10 km
2020/09/26 17:30 LERI 261730Z 25009KT 220V290 CAVOK 24/05 Q1013 NOSIG
LELC - Murcia/San Javier
Actualización: 26/09/2020 19:30
Despejado
Despejado
 Viento del SSO
Viento: SSO 22 km/h
Temperatura: 23°C
Rocío: 10°C
Humedad: 44%
Barómetro: 1013 hPa
Resumen: Despejado
Visibilidad: greater than 10 km
2020/09/26 17:30 LELC 261730Z AUTO 21012KT 160V260 CAVOK 23/10 Q1013
 
LEAL - Alicante
Actualización: 26/09/2020 19:30
Despejado
Despejado
 Viento del NNE
Viento: NNE 11 km/h
Temperatura: 23°C
Rocío: 10°C
Humedad: 44%
Barómetro: 1013 hPa
Resumen: Despejado
Visibilidad: greater than 10 km
2020/09/26 17:30 LEAL 261730Z 02006KT CAVOK 23/10 Q1013 NOSIG
LEAB - Albacete
Actualización: 26/09/2020 19:30
Despejado
Despejado
 Viento del ONO
Viento: ONO 24 km/h
Temperatura: 18°C
Rocío: 3°C
Humedad: 37%
Barómetro: 1017 hPa
Resumen: Despejado
Visibilidad: greater than 10 km
2020/09/26 17:30 LEAB 261730Z 29013KT CAVOK 18/03 Q1017 NOSIG
LEAM - Almería
Actualización: 26/09/2020 19:30
Despejado
Despejado
 Viento del SSO
Viento: SSO 22 km/h
Temperatura: 22°C
Rocío: 16°C
Humedad: 69%
Barómetro: 1015 hPa
Resumen: Despejado
Visibilidad: greater than 10 km
2020/09/26 17:30 LEAM 261730Z 21012KT CAVOK 22/16 Q1015

La estación de MeteoMurcia.com, publica sus datos en los siguientes proyectos:

Weather Underground PWS IMURCIAP2 Meteoclimatic www.awekas.at

W3Counter
Web Analytics